Terminal Aerodrome Forecast
Issued by NWS Albany, NY

Home | Current Version | Previous Version | Text Only | Print | Product List | Glossary On
Versions: 1 2 3 4 5 6 7 8 9 10 11 12 13 14
000
FTUS41 KALY 231700
TAFPOU
TAF
KPOU 231736Z 2318/2418 20008KT P6SM SCT050
     FM232200 23007KT P6SM VCSH SCT050
      TEMPO 2323/2324 VRB10G25KT 3SM -TSRA BR SCT020 OVC035CB
     FM240400 35003KT P6SM VCSH BKN050 BKN100
     FM240900 34003KT P6SM BKN050
     FM241400 34007KT P6SM SCT050 BKN100=

USA.gov is the U.S. government's official web portal to all federal, state and local government web resources and services.